KOLY/OLY METAR and TAF weather

Enter ICAO airport designator
Station Type Date Time Source
KOLY METAR 2019/10/23 12:55 UTC NOAA

KOLY 231255Z AUTO 14003KT 10SM CLR 04/02 A3008 RMK AO2 T00400021


Station Type Date Time Source
KOLY Decoded METAR 2019/10/23 12:55 UTC NOAA

Olney-Noble, Olney-Noble Airport, IL, United States (KOLY) 38-43-19N 088-10-35W
Oct 23, 2019 - 08:55 AM EDT / 2019.10.23 1255 UTC
Wind: from the SE (140 degrees) at 3 MPH (3 KT):0
Visibility: 10 mile(s):0
Sky conditions: clear
Temperature: 39.2 F (4.0 C)
Dew Point: 35.8 F (2.1 C)
Relative Humidity: 87%
Pressure (altimeter): 30.08 in. Hg (1018 hPa)
ob: KOLY 231255Z AUTO 14003KT 10SM CLR 04/02 A3008 RMK AO2 T00400021
cycle: 13

Station Type Date Time Source
KOLY TAF UTC NOAA

Error!

Example: see airport list